North Spring Valley, Nevada Weather observations

Data are for 10 minute period ending at time listed.
 Day   Time   Solar   Ave.   Ave.  Ave.  Vector  Max.   Baro.   Total    
  of    of     Rad.   Air    Rel.  Wind   Wind   Wind  Press.  Precip.   
Year   Day            Temp.  Hum.  Speed  Dir.   Gust                    
2014   (PST)  Kw/m2    F      %     mph   deg.    mph    mb.     in.     
-------------------------------------------------------------------------
 231   10:20   0.55   62.4    75   13.3   137    20.0   826.6    0.00 
 231   10:30   0.82   63.1    75   13.2   139    17.6   826.6    0.00 
 231   10:40   1.03   64.3    73   13.4   148    20.0   826.5    0.00 
 231   10:50   0.94   65.2    71   13.1   155    18.9   826.3    0.00 
 231   11:00   0.57   65.6    71   11.6   170    17.3   826.3    0.00 
 231   11:10   0.63   65.8    69   11.1   172    16.3   826.2    0.00 
 231   11:20   0.77   66.7    67   10.9   165    16.2   826.1    0.00 
 231   11:30   0.68   67.2    66   11.2   163    15.6   825.8    0.00 
 231   11:40   0.84   68.3    64   10.5   170    16.6   825.7    0.00 
 231   11:50   0.95   68.8    62   10.0   164    15.1   825.5    0.00 
 231   12:00   1.06   70.5    60   10.7   150    16.3   825.3    0.00 
 231   12:10   1.02   71.0    59   10.0   150    14.3   825.1    0.00 
 231   12:20   0.98   70.7    58    9.6   140    14.7   824.9    0.00 
 231   12:30   0.96   71.4    57   11.6   141    15.8   824.7    0.00 
 231   12:40   0.95   71.3    55   13.4   144    18.8   824.5    0.00 
 231   12:50   0.94   71.6    52   13.2   147    18.5   824.5    0.00 
 231   13:00   0.93   71.9    49   12.8   147    18.9   824.3    0.00 
 231   13:10   0.91   72.1    46   12.8   153    17.3   824.2    0.00 
 231   13:20   0.90   72.8    46   11.0   146    16.6   824.0    0.00 
 231   13:30   0.88   73.3    48   10.2   155    16.2   823.9    0.00 
 231   13:40   0.91   73.5    48   10.6   154    14.0   823.7    0.00 
 231   13:50   0.61   73.6    47   10.2   164    14.5   823.6    0.00 
 231   14:00   0.66   73.1    50    9.5   156    14.5   823.5    0.00 
 231   14:10   0.68   73.1    51    9.5   154    13.9   823.3    0.00 
 231   14:20   0.20   71.9    53   10.4   161    14.3   823.0    0.00 
 231   14:30   0.14   70.9    56    8.8   161    12.7   822.9    0.00 
 231   14:40   0.13   70.8    58    7.5   159    10.7   822.9    0.00 
 231   14:50   0.11   70.7    57    8.2   157    12.3   822.8    0.00 
 231   15:00   0.10   70.4    60    6.5   158     9.6   822.7    0.00 
 231   15:10   0.08   70.1    61    5.8   157     9.1   822.7    0.00 
 231   15:20   0.05   69.7    63    4.6   161     7.2   822.6    0.00 
 231   15:30   0.04   69.6    63    3.8   165     5.6   822.7    0.00 
 231   15:40   0.04   69.3    64    3.1   156     4.1   822.8    0.00 
 231   15:50   0.03   68.7    66    2.6   157     4.3   822.6    0.00 
 231   16:00   0.03   68.5    66    1.4   153     2.7   822.6    0.00 
 231   16:10   0.02   68.8    64    2.2   156     4.2   822.7    0.00 
 231   16:20   0.01   69.0    62    2.7   165     5.3   823.0    0.00 
 231   16:30   0.01   68.3    67    2.5   342     6.1   823.2    0.00 
 231   16:40   0.01   67.3    71    3.7   344     5.7   823.5    0.00 
 231   16:50   0.01   66.9    68    6.7   342    11.8   823.8    0.00 
 231   17:00   0.01   64.1    66    9.6   329    18.4   824.1    0.01 
 231   17:10   0.01   61.9    66   14.0   312    19.6   824.5    0.01 
 231   17:20   0.00   60.6    69   12.5   311    20.4   824.8    0.02 
 231   17:30   0.00   60.8    66   13.8   312    21.8   825.0    0.02 
 231   17:40   0.00   60.0    68   14.2   298    22.6   825.1    0.02 
 231   17:50   0.00   59.3    73    9.2   341    14.7   825.4    0.01 
 231   18:00   0.00   59.5    71   12.0     7    17.6   825.7    0.01 
 231   18:10   0.00   59.2    72   11.8    11    23.7   826.2    0.02 
 231   18:20   0.00   59.2    70    9.1   347    19.0   826.5    0.02 
 231   18:30   0.00   59.3    68    8.4   345    18.1   826.6    0.00 
 231   18:40   0.00   57.2    80    7.2     9    13.2   826.9    0.01 
 231   18:50   0.00   56.3    84    6.9    30     9.8   827.1    0.01 
 231   19:00   0.00   56.0    85    6.1    40     8.5   827.1    0.00 
 231   19:10   0.00   55.7    89    6.7    48     9.4   827.2    0.00 
 231   19:20   0.00   55.5    91    4.7    66     7.5   827.4    0.01 
 231   19:30   0.00   55.6    91    3.0   237     6.0   827.6    0.01 
 231   19:40   0.00   55.8    90    3.6   257     6.8   827.7    0.00 
 231   19:50   0.00   56.0    88    2.2    19     4.0   827.8    0.00 
 231   20:00   0.00   55.7    88    2.5    46     3.4   827.8    0.01 
 231   20:10   0.00   55.5    88    0.7    73     1.6   827.6    0.00 
 231   20:20   0.00   55.5    90    1.5   292     2.6   827.6    0.00 
 231   20:30   0.00   55.5    90    0.3   230     1.8   827.2    0.01 
 231   20:40   0.00   56.0    88    1.5   152     3.1   827.1    0.00 
 231   20:50   0.00   55.4    89    2.0    69     3.1   827.0    0.00 
 231   21:00   0.00   54.9    91    1.7    17     2.0   826.9    0.00 
 231   21:10   0.00   55.1    92    2.3   351     3.4   826.8    0.00 
 231   21:20   0.00   55.4    91    2.6   328     3.4   826.8    0.00 
 231   21:30   0.00   55.4    90    1.8   330     3.2   826.6    0.00 
 231   21:40   0.00   55.4    91    3.0   359     5.7   826.5    0.00 
 231   21:50   0.00   55.1    92    5.4    14     8.3   826.7    0.00 
 231   22:00   0.00   55.3    92    4.2   358     6.5   826.7    0.00 
 231   22:10   0.00   55.5    91    3.6   340     5.7   826.6    0.00 
 231   22:20   0.00   55.4    90    3.0   356     4.7   826.7    0.00 
 231   22:30   0.00   55.4    90    3.1   337     5.6   826.7    0.00 
 231   22:40   0.00   55.3    90    1.5   270     2.5   826.5    0.00 
 231   22:50   0.00   55.6    89    2.1   250     3.4   826.3    0.00 
 231   23:00   0.00   56.0    89    3.3   196     4.5   826.2    0.00 
 231   23:10   0.00   56.1    89    5.4   172     7.7   825.9    0.00 
 231   23:20   0.00   55.9    87    5.5   165     8.7   825.7    0.00 
 231   23:30   0.00   55.4    89    5.9   167     8.6   825.7    0.00 
 231   23:40   0.00   55.5    88    6.0   188     9.1   825.7    0.00 
 231   23:50   0.00   56.0    87    5.5   205     8.1   825.6    0.00 
 232    0:00   0.00   56.3    89    5.5   172     8.2   825.5    0.00 
 232    0:10   0.00   56.0    89    6.8   163     9.6   825.5    0.00 
 232    0:20   0.00   55.7    89    5.9   172     9.7   825.4    0.00 
 232    0:30   0.00   55.8    89    4.4   169     6.6   825.4    0.00 
 232    0:40   0.00   55.4    90    2.7   141     4.2   825.4    0.00 
 232    0:50   0.00   54.8    90    1.6   160     2.5   825.4    0.00 
 232    1:00   0.00   54.7    91    0.9   341     1.9   825.5    0.00 
 232    1:10   0.00   54.3    91    3.3   348     8.0   825.6    0.00 
 232    1:20   0.00   52.9    93    3.8    29     7.2   825.8    0.00 
 232    1:30   0.00   52.8    94    2.8     7     4.3   825.9    0.00 
 232    1:40   0.00   52.9    95    1.2    45     2.7   826.1    0.00 
 232    1:50   0.00   53.0    95    1.3   200     3.2   826.1    0.00 
 232    2:00   0.00   53.6    95    3.2   185     5.1   826.2    0.00 
 232    2:10   0.00   54.1    94    3.0   174     4.5   826.2    0.00 
 232    2:20   0.00   54.4    92    2.3   187     4.3   826.2    0.00 
 232    2:30   0.00   54.2    91    1.9   179     3.6   826.3    0.00 
 232    2:40   0.00   54.0    91    1.5   313     2.9   826.5    0.00 
 232    2:50   0.00   53.9    92    1.4   317     3.2   826.5    0.00 
 232    3:00   0.00   53.8    92    1.8   346     3.0   826.5    0.00 
 232    3:10   0.00   53.6    93    1.9    30     3.0   826.5    0.00 
 232    3:20   0.00   53.4    92    0.6   330     1.9   826.6    0.00 
 232    3:30   0.00   53.3    92    1.1   222     2.3   826.6    0.00 
 232    3:40   0.00   53.7    92    1.8   165     3.1   826.5    0.00 
 232    3:50   0.00   53.5    93    3.5   158     5.0   826.4    0.00 
 232    4:00   0.00   53.4    92    3.7   170     6.1   826.3    0.00 
 232    4:10   0.00   53.0    92    3.5   152     5.0   826.3    0.00 
 232    4:20   0.00   53.1    92    3.6   163     5.2   826.2    0.00 
 232    4:30   0.00   53.3    92    2.7   159     4.3   826.2    0.00 
 232    4:40   0.00   53.5    92    1.8   166     3.1   826.3    0.00 
 232    4:50   0.00   53.4    92    1.9   119     3.9   826.5    0.00 
 232    5:00   0.00   53.3    92    2.0   126     4.0   826.6    0.00 
 232    5:10   0.01   53.0    92    1.6   144     5.7   826.8    0.00 
 232    5:20   0.01   52.7    93    5.0   140     6.1   826.8    0.00 
 232    5:30   0.03   52.8    94    3.3   169     4.5   826.9    0.00 
 232    5:40   0.05   53.1    94    2.5   210     5.0   827.0    0.00 
 232    5:50   0.12   54.2    93    2.2   191     3.5   827.0    0.00 
 232    6:00   0.20   56.4    89    1.0   110     2.9   827.1    0.00 
 232    6:10   0.23   57.1    84    2.4   101     3.6   827.1    0.00 
 232    6:20   0.29   57.8    82    2.3   118     3.8   827.2    0.00 
 232    6:30   0.24   58.7    79    2.4   132     4.7   827.1    0.00 
 232    6:40   0.15   57.7    80    1.3   125     3.1   827.1    0.00 
 232    6:50   0.25   58.4    80    1.4   132     3.1   827.1    0.00 
 232    7:00   0.41   59.7    78    2.3    90     4.2   827.2    0.00 
 232    7:10   0.35   60.4    75    1.9    43     4.1   827.2    0.00 
 232    7:20   0.44   60.1    76    3.1    30     5.1   827.3    0.00 
 232    7:30   0.56   61.0    74    3.3    36     6.4   827.3    0.00 
 232    7:40   0.63   61.5    73    2.7    19     6.2   827.3    0.00 
 232    7:50   0.62   63.0    70    2.4    12     6.2   827.3    0.00 
 232    8:00   0.34   63.1    68    1.5    90     4.4   827.3    0.00 
 232    8:10   0.28   62.1    72    1.7    66     4.5   827.3    0.00 
 232    8:20   0.46   63.1    70    1.2    11     3.4   827.3    0.00 
 232    8:30   0.39   63.6    70    3.1   325     7.2   827.3    0.00 
 232    8:40   0.37   64.2    68    4.4   335     7.2   827.3    0.00 
 232    8:50   0.45   64.9    66    3.9   320     8.8   827.2    0.00 
 232    9:00   0.43   66.1    63    4.1   319     7.2   827.2    0.00 
 232    9:10   0.43   66.8    60    2.6   328     5.3   827.2    0.00 
 232    9:20   0.51   68.1    56    1.9   268     3.9   827.2    0.00 
 232    9:30   0.48   69.1    55    1.7   281     3.9   827.2    0.00 
 232    9:40   0.45   69.4    52    1.8    26     3.9   827.1    0.00 
 232    9:50   0.39   70.5    53    1.5   326     4.2   827.1    0.00 
 232   10:00   0.40   71.0    51    1.5   333     3.7   827.0    0.00 
 232   10:10   0.41   71.4    53    9.0   152    15.1   827.0    0.00 

Return to North Spring Valley graphs page.


Western Regional Climate Center,wrcc@dri.edu